createdAt,value
2022-09-06T00:01:30.236Z,29.55
2022-09-06T00:04:02.644Z,29.71
2022-09-06T00:06:34.398Z,29.46
2022-09-06T00:09:07.942Z,29.76
2022-09-06T00:11:41.498Z,29.81
2022-09-06T00:14:13.646Z,29.89
2022-09-06T00:16:45.235Z,29.57
2022-09-06T00:19:17.362Z,29.88
2022-09-06T00:21:49.469Z,29.79
2022-09-06T00:24:21.770Z,29.97
2022-09-06T00:26:53.343Z,29.68
2022-09-06T00:29:25.346Z,29.80
2022-09-06T00:31:57.730Z,29.95
2022-09-06T00:34:29.725Z,29.71
2022-09-06T00:37:02.101Z,29.87
2022-09-06T00:39:34.315Z,30.08
2022-09-06T00:42:10.859Z,30.13
2022-09-06T00:44:43.031Z,30.07
2022-09-06T00:47:15.647Z,30.15
2022-09-06T00:49:52.425Z,30.17
2022-09-06T00:52:25.686Z,30.19
2022-09-06T00:54:58.923Z,30.19
2022-09-06T00:57:33.606Z,30.21
2022-09-06T01:00:09.944Z,29.78
2022-09-06T01:02:42.142Z,30.21
2022-09-06T01:05:15.473Z,30.21
2022-09-06T01:08:04.694Z,30.20
2022-09-06T01:11:27.344Z,30.04
2022-09-06T01:14:11.793Z,30.22
2022-09-06T01:17:07.753Z,30.26
2022-09-06T01:20:25.452Z,30.03
2022-09-06T01:23:18.801Z,29.71
2022-09-06T01:26:24.738Z,30.21
2022-09-06T01:28:57.345Z,30.31
2022-09-06T01:32:24.829Z,30.16
2022-09-06T01:35:07.618Z,30.27
2022-09-06T01:37:39.999Z,30.36
2022-09-06T01:40:12.498Z,30.38
2022-09-06T01:42:48.085Z,30.04
2022-09-06T01:45:23.560Z,30.43
2022-09-06T01:48:15.322Z,30.28
2022-09-06T01:51:06.031Z,30.34
2022-09-06T01:53:47.161Z,30.42
2022-09-06T01:56:48.210Z,30.45
2022-09-06T01:59:49.365Z,30.06
2022-09-06T02:02:33.840Z,30.43
2022-09-06T02:05:24.392Z,30.53
2022-09-06T02:08:19.043Z,30.54
2022-09-06T02:11:05.335Z,30.55
2022-09-06T02:13:52.724Z,30.09
2022-09-06T02:16:28.864Z,30.62
2022-09-06T02:19:22.135Z,30.59
2022-09-06T02:21:56.339Z,30.23
2022-09-06T02:24:33.474Z,30.19
2022-09-06T02:27:06.261Z,30.71
2022-09-06T02:29:38.697Z,30.62
2022-09-06T02:32:10.237Z,30.42
2022-09-06T02:34:44.034Z,30.71
2022-09-06T02:37:18.405Z,30.36
2022-09-06T02:39:50.646Z,30.80
2022-09-06T02:42:24.819Z,30.83
2022-09-06T02:44:57.228Z,30.84
2022-09-06T02:47:29.416Z,30.75
2022-09-06T02:50:02.337Z,30.89
2022-09-06T02:52:34.913Z,30.90
2022-09-06T02:55:07.660Z,30.83
2022-09-06T02:57:39.890Z,30.95
2022-09-06T03:00:12.664Z,30.97
2022-09-06T03:02:44.900Z,31.00
2022-09-06T03:05:17.440Z,30.98
2022-09-06T03:07:49.708Z,31.03
2022-09-06T03:10:22.511Z,30.76
2022-09-06T03:12:55.445Z,31.08
2022-09-06T03:15:27.566Z,31.07
2022-09-06T03:18:01.313Z,30.67
2022-09-06T03:20:37.009Z,31.14
2022-09-06T03:23:09.529Z,31.19
2022-09-06T03:25:42.022Z,30.92
2022-09-06T03:28:14.553Z,31.23
2022-09-06T03:30:51.358Z,31.26
2022-09-06T03:33:24.383Z,31.22
2022-09-06T03:36:01.820Z,31.31
2022-09-06T03:38:33.972Z,31.21
2022-09-06T03:41:06.154Z,31.33
2022-09-06T03:43:38.354Z,31.13
2022-09-06T03:46:10.594Z,31.29
2022-09-06T03:48:42.846Z,31.29
2022-09-06T03:51:14.926Z,31.41
2022-09-06T03:53:47.593Z,31.31
2022-09-06T03:56:19.679Z,31.43
2022-09-06T03:58:51.849Z,31.39
2022-09-06T04:01:24.106Z,31.45
2022-09-06T04:03:56.339Z,31.50
2022-09-06T04:06:29.529Z,31.52
2022-09-06T04:09:01.669Z,31.53
2022-09-06T04:11:33.976Z,31.55
2022-09-06T04:14:06.241Z,31.57
2022-09-06T04:16:38.627Z,31.57
2022-09-06T04:19:10.889Z,31.53
2022-09-06T04:21:43.046Z,31.57
2022-09-06T04:24:15.199Z,31.61
2022-09-06T04:26:47.290Z,31.68
2022-09-06T04:29:19.396Z,31.68
2022-09-06T04:31:51.609Z,31.70
2022-09-06T04:34:23.862Z,31.63
2022-09-06T04:36:56.068Z,31.74
2022-09-06T04:39:28.212Z,31.74
2022-09-06T04:42:00.303Z,31.75
2022-09-06T04:44:32.429Z,31.75
2022-09-06T04:47:14.121Z,31.34
2022-09-06T04:49:46.812Z,31.74
2022-09-06T04:52:19.655Z,31.77
2022-09-06T04:54:51.874Z,31.73
2022-09-06T04:57:24.031Z,31.78
2022-09-06T04:59:56.192Z,31.79
2022-09-06T05:02:29.158Z,31.74
2022-09-06T05:05:01.260Z,31.70
2022-09-06T05:07:33.354Z,31.81
2022-09-06T05:10:05.658Z,31.85
2022-09-06T05:12:42.076Z,31.74
2022-09-06T05:15:16.209Z,31.86
2022-09-06T05:17:48.919Z,31.88
2022-09-06T05:20:21.192Z,31.89
2022-09-06T05:22:56.196Z,31.91
2022-09-06T05:25:28.325Z,31.91
2022-09-06T05:28:00.697Z,31.84
2022-09-06T05:30:32.690Z,31.94
2022-09-06T05:33:04.261Z,31.65
2022-09-06T05:35:36.430Z,31.91
2022-09-06T05:38:08.554Z,31.96
2022-09-06T05:40:40.944Z,31.97
2022-09-06T05:43:13.374Z,31.99
2022-09-06T05:45:46.742Z,32.00
2022-09-06T05:48:21.132Z,32.01
2022-09-06T05:51:02.580Z,31.73
2022-09-06T05:54:00.993Z,31.88
2022-09-06T05:56:33.133Z,32.01
2022-09-06T05:59:05.881Z,32.01
2022-09-06T06:01:38.085Z,31.90
2022-09-06T06:04:11.033Z,32.08
2022-09-06T06:06:43.149Z,32.07
2022-09-06T06:09:15.735Z,32.12
2022-09-06T06:11:48.268Z,32.12
2022-09-06T06:14:20.428Z,32.15
2022-09-06T06:16:53.455Z,32.16
2022-09-06T06:19:25.525Z,32.12
2022-09-06T06:21:59.789Z,32.20
2022-09-06T06:24:31.947Z,32.21
2022-09-06T06:27:04.302Z,32.20
2022-09-06T06:29:36.926Z,32.16
2022-09-06T06:32:09.089Z,32.25
2022-09-06T06:34:41.248Z,32.27
2022-09-06T06:37:13.443Z,32.16
2022-09-06T06:39:45.642Z,32.28
2022-09-06T06:42:17.879Z,32.30
2022-09-06T06:44:57.283Z,32.21
2022-09-06T06:47:29.319Z,32.31
2022-09-06T06:50:01.476Z,32.35
2022-09-06T06:52:33.892Z,32.36
2022-09-06T06:55:07.405Z,32.38
2022-09-06T06:57:39.682Z,32.40
2022-09-06T07:00:12.628Z,32.44
2022-09-06T07:02:45.382Z,32.44
2022-09-06T07:08:13.396Z,32.49
2022-09-06T07:10:45.544Z,32.51
2022-09-06T07:13:17.894Z,32.51
2022-09-06T07:15:50.191Z,32.55
2022-09-06T07:18:22.374Z,32.54
2022-09-06T07:26:40.841Z,32.49
2022-09-06T07:29:13.100Z,32.65
2022-09-06T07:34:39.239Z,32.70
2022-09-06T07:37:11.662Z,32.69
2022-09-06T07:39:44.142Z,32.74
2022-09-06T07:42:17.724Z,32.72
2022-09-06T07:44:49.902Z,32.72
2022-09-06T07:53:12.684Z,32.57
2022-09-06T07:55:49.665Z,32.78
2022-09-06T07:58:21.857Z,32.79
2022-09-06T08:00:54.052Z,32.91
2022-09-06T08:03:26.348Z,32.85
2022-09-06T08:06:13.717Z,32.62
2022-09-06T08:09:01.185Z,32.99
2022-09-06T08:11:35.374Z,32.66
2022-09-06T08:14:10.008Z,32.28
2022-09-06T08:16:42.363Z,32.97
2022-09-06T08:19:16.206Z,33.09
2022-09-06T08:21:48.480Z,33.00
2022-09-06T08:24:23.753Z,33.06
2022-09-06T08:26:56.100Z,33.17
2022-09-06T08:29:32.468Z,33.19
2022-09-06T08:32:04.993Z,33.21
2022-09-06T08:34:37.115Z,33.25
2022-09-06T08:37:09.770Z,33.26
2022-09-06T08:39:41.973Z,33.30
2022-09-06T08:42:14.801Z,33.30
2022-09-06T08:47:31.716Z,33.27
2022-09-06T08:50:08.417Z,33.07
2022-09-06T08:53:23.817Z,33.29
2022-09-06T08:56:25.606Z,33.40
2022-09-06T08:59:09.330Z,33.30
2022-09-06T09:01:55.676Z,33.29
2022-09-06T09:04:32.345Z,32.75
2022-09-06T09:07:21.102Z,33.37
2022-09-06T09:09:56.789Z,33.38
2022-09-06T09:12:32.453Z,33.47
2022-09-06T09:15:11.376Z,33.52
2022-09-06T09:17:45.021Z,33.56
2022-09-06T09:20:17.325Z,33.57
2022-09-06T09:22:50.476Z,33.52
2022-09-06T09:25:26.056Z,33.36
2022-09-06T09:27:59.224Z,33.36
2022-09-06T09:30:55.138Z,33.20
2022-09-06T09:33:37.340Z,33.15
2022-09-06T09:36:15.651Z,33.06
2022-09-06T09:38:54.391Z,32.58
2022-09-06T09:41:32.178Z,32.96
2022-09-06T09:44:29.600Z,32.85
2022-09-06T09:47:01.813Z,32.83
2022-09-06T09:49:34.772Z,32.85
2022-09-06T09:52:15.686Z,32.77
2022-09-06T09:54:49.278Z,32.79
2022-09-06T09:57:21.824Z,32.78
2022-09-06T10:00:04.926Z,32.64
2022-09-06T10:02:42.409Z,32.64
2022-09-06T10:05:14.484Z,32.71
2022-09-06T10:07:59.162Z,32.57
2022-09-06T10:10:48.400Z,32.67
2022-09-06T10:13:31.803Z,32.62
2022-09-06T10:16:07.484Z,32.63
2022-09-06T10:18:41.508Z,32.62
2022-09-06T10:21:26.606Z,32.62
2022-09-06T10:27:04.680Z,32.49
2022-09-06T10:29:54.465Z,32.11
2022-09-06T10:32:49.373Z,31.73
2022-09-06T10:35:33.714Z,32.33
2022-09-06T10:38:24.402Z,32.46
2022-09-06T10:40:59.275Z,32.42
2022-09-06T10:43:46.977Z,32.41
2022-09-06T10:46:24.194Z,32.36
2022-09-06T10:48:56.671Z,32.37
2022-09-06T10:51:47.066Z,31.92
2022-09-06T10:54:25.342Z,31.94
2022-09-06T10:57:05.310Z,32.36
2022-09-06T10:59:46.205Z,31.92
2022-09-06T11:02:19.345Z,32.34
2022-09-06T11:10:46.895Z,32.34
2022-09-06T11:13:21.873Z,31.81
2022-09-06T11:16:05.843Z,31.91
2022-09-06T11:18:49.703Z,32.28
2022-09-06T11:21:48.950Z,32.28
2022-09-06T11:24:47.940Z,32.21
2022-09-06T11:27:40.916Z,32.21
2022-09-06T11:30:18.528Z,31.79
2022-09-06T11:33:24.234Z,31.74
2022-09-06T11:36:16.732Z,32.23
2022-09-06T11:39:00.336Z,32.19
2022-09-06T11:41:40.050Z,31.83
2022-09-06T11:44:12.755Z,32.20
2022-09-06T11:46:44.924Z,32.21
2022-09-06T11:49:38.732Z,31.71
2022-09-06T11:52:52.547Z,32.06
2022-09-06T11:55:31.784Z,32.02
2022-09-06T11:58:28.598Z,31.72
2022-09-06T12:01:20.252Z,32.05
2022-09-06T12:04:05.375Z,32.09
2022-09-06T12:07:05.773Z,31.72
2022-09-06T12:09:45.156Z,31.75
2022-09-06T12:12:41.492Z,31.82
2022-09-06T12:16:02.658Z,31.82
2022-09-06T12:18:50.305Z,31.79
2022-09-06T12:21:44.367Z,31.16
2022-09-06T12:24:39.940Z,31.73
2022-09-06T12:27:19.399Z,31.76
2022-09-06T12:30:05.795Z,31.71
2022-09-06T12:32:48.836Z,31.52
2022-09-06T12:38:25.856Z,31.66
2022-09-06T12:41:00.452Z,31.63
2022-09-06T12:43:37.561Z,31.25
2022-09-06T12:46:09.891Z,31.61
2022-09-06T12:48:45.822Z,31.59
2022-09-06T12:51:25.022Z,31.47
2022-09-06T12:54:03.384Z,31.55
2022-09-06T12:56:36.403Z,31.54
2022-09-06T12:59:18.542Z,31.49
2022-09-06T13:01:58.280Z,31.32
2022-09-06T13:04:42.299Z,31.47
2022-09-06T13:07:19.507Z,31.41
2022-09-06T13:09:55.591Z,31.45
2022-09-06T13:12:31.067Z,31.47
2022-09-06T13:15:21.572Z,31.39
2022-09-06T13:17:55.586Z,31.25
2022-09-06T13:20:31.482Z,31.21
2022-09-06T13:23:12.827Z,31.05
2022-09-06T13:25:53.373Z,31.47
2022-09-06T13:28:36.199Z,31.34
2022-09-06T13:31:20.396Z,31.42
2022-09-06T13:34:01.933Z,31.47
2022-09-06T13:36:35.281Z,31.37
2022-09-06T13:39:07.448Z,31.47
2022-09-06T13:41:42.653Z,31.49
2022-09-06T13:44:17.464Z,31.47
2022-09-06T13:46:56.581Z,31.07
2022-09-06T13:49:30.619Z,31.45
2022-09-06T13:52:05.096Z,31.08
2022-09-06T13:54:38.065Z,31.45
2022-09-06T13:57:11.199Z,31.27
2022-09-06T13:59:44.323Z,31.27
2022-09-06T14:02:19.148Z,31.06
2022-09-06T14:04:51.223Z,31.06
2022-09-06T14:07:23.340Z,30.76
2022-09-06T14:09:56.181Z,30.82
2022-09-06T14:12:31.033Z,30.78
2022-09-06T14:15:05.847Z,30.63
2022-09-06T14:17:38.826Z,30.61
2022-09-06T14:20:11.596Z,30.44
2022-09-06T14:22:44.001Z,30.46
2022-09-06T14:25:16.184Z,30.42
2022-09-06T14:27:50.104Z,30.27
2022-09-06T14:30:22.559Z,30.27
2022-09-06T14:32:54.748Z,30.23
2022-09-06T14:35:27.366Z,30.18
2022-09-06T14:38:00.027Z,30.12
2022-09-06T14:40:35.915Z,30.05
2022-09-06T14:43:08.470Z,30.08
2022-09-06T14:45:41.252Z,30.02
2022-09-06T14:48:13.395Z,30.01
2022-09-06T14:50:45.034Z,29.73
2022-09-06T14:53:38.986Z,29.85
2022-09-06T14:56:12.529Z,29.91
2022-09-06T14:58:45.427Z,29.89
2022-09-06T15:01:28.187Z,29.40
2022-09-06T15:04:03.984Z,29.75
2022-09-06T15:06:38.300Z,29.78
2022-09-06T15:09:12.692Z,29.76
2022-09-06T15:11:47.387Z,29.76
2022-09-06T15:14:25.911Z,29.37
2022-09-06T15:17:01.208Z,29.70
2022-09-06T15:19:35.317Z,29.63
2022-09-06T15:22:08.821Z,29.67
2022-09-06T15:24:42.021Z,29.42
2022-09-06T15:27:14.297Z,29.64
2022-09-06T15:29:46.890Z,29.59
2022-09-06T15:32:19.293Z,29.60
2022-09-06T15:34:51.412Z,29.57
2022-09-06T15:37:23.737Z,29.58
2022-09-06T15:39:55.979Z,29.57
2022-09-06T15:42:28.147Z,29.55
2022-09-06T15:44:59.902Z,29.27
2022-09-06T15:47:31.860Z,29.50
2022-09-06T15:50:03.848Z,29.25
2022-09-06T15:52:36.347Z,29.48
2022-09-06T15:55:27.123Z,29.57
2022-09-06T15:57:59.206Z,29.58
2022-09-06T16:00:31.126Z,29.29
2022-09-06T16:03:03.208Z,29.55
2022-09-06T16:08:31.146Z,29.58
2022-09-06T16:11:12.706Z,29.23
2022-09-06T16:13:46.638Z,29.54
2022-09-06T16:16:19.775Z,29.41
2022-09-06T16:18:53.591Z,29.55
2022-09-06T16:21:28.279Z,29.16
2022-09-06T16:24:05.904Z,29.07
2022-09-06T16:26:43.588Z,29.56
2022-09-06T16:29:17.839Z,29.51
2022-09-06T16:31:50.020Z,29.48
2022-09-06T16:34:21.829Z,29.20
2022-09-06T16:36:54.253Z,29.40
2022-09-06T16:39:26.398Z,29.43
2022-09-06T16:41:58.587Z,29.48
2022-09-06T16:44:30.164Z,29.14
2022-09-06T16:47:05.362Z,29.42
2022-09-06T16:49:37.757Z,29.36
2022-09-06T16:52:09.367Z,29.09
2022-09-06T16:54:41.396Z,29.37
2022-09-06T16:57:12.981Z,29.05
2022-09-06T16:59:45.122Z,29.29
2022-09-06T17:02:17.586Z,29.24
2022-09-06T17:04:51.092Z,29.32
2022-09-06T17:07:23.176Z,29.24
2022-09-06T17:09:54.784Z,28.94
2022-09-06T17:12:26.786Z,29.22
2022-09-06T17:14:58.441Z,28.89
2022-09-06T17:17:30.601Z,29.18
2022-09-06T17:20:02.698Z,29.16
2022-09-06T17:22:34.743Z,29.16
2022-09-06T17:25:06.769Z,28.83
2022-09-06T17:27:39.101Z,29.07
2022-09-06T17:30:11.970Z,29.06
2022-09-06T17:32:44.112Z,29.11
2022-09-06T17:35:16.726Z,29.11
2022-09-06T17:37:49.582Z,29.07
2022-09-06T17:40:21.688Z,29.02
2022-09-06T17:42:54.269Z,29.04
2022-09-06T17:45:26.962Z,28.74
2022-09-06T17:47:59.503Z,28.98
2022-09-06T17:50:34.972Z,28.70
2022-09-06T17:53:06.925Z,28.99
2022-09-06T17:55:46.276Z,28.94
2022-09-06T17:58:18.535Z,28.96
2022-09-06T18:00:52.010Z,28.97
2022-09-06T18:03:24.601Z,28.94
2022-09-06T18:05:56.180Z,28.66
2022-09-06T18:08:28.786Z,28.92
2022-09-06T18:11:00.979Z,28.93
2022-09-06T18:13:32.929Z,28.61
2022-09-06T18:16:06.670Z,28.88
2022-09-06T18:18:39.288Z,28.85
2022-09-06T18:21:12.022Z,28.93
2022-09-06T18:23:44.166Z,28.90
2022-09-06T18:26:16.136Z,28.59
2022-09-06T18:28:48.142Z,28.80
2022-09-06T18:31:22.658Z,28.83
2022-09-06T18:33:56.970Z,28.82
2022-09-06T18:36:32.184Z,28.86
2022-09-06T18:39:06.309Z,28.88
2022-09-06T18:41:56.565Z,28.84
2022-09-06T18:44:36.207Z,28.81
2022-09-06T18:47:11.382Z,28.44
2022-09-06T18:49:44.330Z,28.78
2022-09-06T18:52:17.528Z,28.76
2022-09-06T18:54:50.849Z,28.78
2022-09-06T18:57:23.165Z,28.76
2022-09-06T18:59:55.322Z,28.75
2022-09-06T19:02:28.981Z,28.42
2022-09-06T19:05:01.066Z,28.68
2022-09-06T19:07:32.656Z,28.39
2022-09-06T19:10:05.928Z,28.65
2022-09-06T19:12:38.048Z,28.63
2022-09-06T19:15:12.187Z,28.62
2022-09-06T19:17:44.490Z,28.63
2022-09-06T19:20:16.655Z,28.61
2022-09-06T19:22:51.165Z,28.31
2022-09-06T19:25:23.413Z,28.60
2022-09-06T19:27:55.608Z,28.60
2022-09-06T19:30:27.189Z,28.29
2022-09-06T19:32:59.188Z,28.47
2022-09-06T19:35:31.753Z,28.55
2022-09-06T19:38:03.892Z,28.57
2022-09-06T19:40:36.313Z,28.52
2022-09-06T19:43:08.550Z,28.44
2022-09-06T19:45:40.784Z,28.23
2022-09-06T19:48:12.917Z,28.47
2022-09-06T19:50:45.740Z,28.45
2022-09-06T19:53:17.831Z,28.49
2022-09-06T19:55:50.175Z,28.49
2022-09-06T19:58:22.345Z,28.51
2022-09-06T20:00:59.875Z,28.18
2022-09-06T20:03:31.914Z,28.44
2022-09-06T20:06:04.203Z,28.47
2022-09-06T20:08:37.908Z,28.50
2022-09-06T20:11:11.876Z,28.49
2022-09-06T20:13:44.258Z,28.44
2022-09-06T20:16:19.277Z,28.43
2022-09-06T20:18:53.858Z,28.46
2022-09-06T20:21:25.989Z,28.45
2022-09-06T20:24:00.516Z,27.98
2022-09-06T20:26:32.787Z,28.42
2022-09-06T20:29:05.961Z,28.09
2022-09-06T20:31:39.115Z,28.39
2022-09-06T20:34:13.594Z,28.40
2022-09-06T20:36:45.685Z,28.41
2022-09-06T20:39:17.867Z,28.26
2022-09-06T20:41:49.706Z,28.06
2022-09-06T20:44:21.941Z,28.35
2022-09-06T20:46:54.166Z,28.36
2022-09-06T20:49:26.696Z,28.25
2022-09-06T20:51:58.316Z,28.04
2022-09-06T20:54:31.007Z,28.30
2022-09-06T20:57:03.100Z,28.33
2022-09-06T20:59:35.330Z,28.32
2022-09-06T21:02:07.691Z,27.99
2022-09-06T21:04:39.757Z,28.27
2022-09-06T21:07:11.470Z,27.98
2022-09-06T21:09:43.848Z,28.24
2022-09-06T21:12:15.976Z,28.27
2022-09-06T21:14:47.727Z,27.96
2022-09-06T21:17:19.814Z,28.24
2022-09-06T21:19:52.151Z,28.25
2022-09-06T21:22:24.278Z,28.22
2022-09-06T21:24:55.980Z,27.93
2022-09-06T21:27:28.002Z,28.19
2022-09-06T21:29:59.718Z,27.88
2022-09-06T21:32:31.783Z,28.16
2022-09-06T21:35:03.974Z,28.09
2022-09-06T21:37:35.706Z,27.86
2022-09-06T21:40:08.347Z,28.14
2022-09-06T21:42:40.671Z,28.19
2022-09-06T21:45:14.423Z,28.18
2022-09-06T21:47:46.577Z,28.20
2022-09-06T21:50:19.186Z,28.10
2022-09-06T21:52:51.298Z,28.12
2022-09-06T21:55:22.975Z,27.85
2022-09-06T21:57:54.965Z,28.14
2022-09-06T22:00:27.170Z,28.12
2022-09-06T22:02:59.483Z,28.10
2022-09-06T22:05:31.754Z,28.07
2022-09-06T22:08:04.470Z,28.03
2022-09-06T22:10:36.794Z,28.03
2022-09-06T22:13:09.376Z,28.06
2022-09-06T22:15:42.053Z,28.01
2022-09-06T22:18:14.993Z,27.99
2022-09-06T22:20:47.527Z,27.93
2022-09-06T22:23:19.789Z,27.98
2022-09-06T22:26:05.468Z,27.92
2022-09-06T22:28:39.193Z,27.98
2022-09-06T22:31:12.488Z,27.98
2022-09-06T22:33:46.188Z,27.94
2022-09-06T22:36:18.864Z,27.84
2022-09-06T22:38:54.516Z,27.91
2022-09-06T22:41:28.960Z,27.45
2022-09-06T22:44:05.379Z,27.93
2022-09-06T22:46:38.700Z,27.88
2022-09-06T22:49:10.962Z,27.87
2022-09-06T22:51:43.559Z,27.90
2022-09-06T22:54:15.793Z,27.86
2022-09-06T22:56:47.998Z,27.79
2022-09-06T22:59:19.897Z,27.56
2022-09-06T23:01:52.178Z,27.79
2022-09-06T23:04:24.761Z,27.88
2022-09-06T23:06:56.348Z,27.75
2022-09-06T23:09:28.579Z,27.88
2022-09-06T23:12:00.698Z,28.10
2022-09-06T23:14:32.878Z,28.16
2022-09-06T23:17:05.237Z,28.26
2022-09-06T23:19:37.358Z,28.31
2022-09-06T23:22:09.129Z,28.21
2022-09-06T23:24:41.342Z,28.49
2022-09-06T23:27:13.968Z,28.51
2022-09-06T23:29:47.432Z,28.73
2022-09-06T23:32:19.531Z,28.64
2022-09-06T23:34:51.651Z,28.88
2022-09-06T23:37:23.701Z,28.78
2022-09-06T23:39:55.793Z,28.94
2022-09-06T23:42:27.431Z,28.80
2022-09-06T23:45:00.502Z,29.05
2022-09-06T23:47:32.603Z,29.14
2022-09-06T23:50:04.774Z,28.96
2022-09-06T23:52:36.907Z,29.20
2022-09-06T23:55:10.831Z,29.12
2022-09-06T23:57:42.926Z,29.31
